sensor_id;sensor_type;location;lat;lon;timestamp;temperature;humidity
12025;DHT22;6073;53.230;10.444;2023-04-01T00:01:12;9.50;99.90
12025;DHT22;6073;53.230;10.444;2023-04-01T00:03:39;9.50;99.90
12025;DHT22;6073;53.230;10.444;2023-04-01T00:06:05;9.50;99.90
12025;DHT22;6073;53.230;10.444;2023-04-01T00:08:30;9.50;99.90
12025;DHT22;6073;53.230;10.444;2023-04-01T00:10:57;9.50;99.90
12025;DHT22;6073;53.230;10.444;2023-04-01T00:13:24;9.50;99.90
12025;DHT22;6073;53.230;10.444;2023-04-01T00:15:51;9.50;99.90
12025;DHT22;6073;53.230;10.444;2023-04-01T00:18:17;9.50;99.90
12025;DHT22;6073;53.230;10.444;2023-04-01T00:20:47;9.50;99.90
12025;DHT22;6073;53.230;10.444;2023-04-01T00:23:14;9.50;99.90
12025;DHT22;6073;53.230;10.444;2023-04-01T00:25:40;9.50;99.90
12025;DHT22;6073;53.230;10.444;2023-04-01T00:28:06;9.50;99.90
12025;DHT22;6073;53.230;10.444;2023-04-01T00:30:31;9.50;99.90
12025;DHT22;6073;53.230;10.444;2023-04-01T00:32:57;9.50;99.90
12025;DHT22;6073;53.230;10.444;2023-04-01T00:35:23;9.50;99.90
12025;DHT22;6073;53.230;10.444;2023-04-01T00:37:48;9.50;99.90
12025;DHT22;6073;53.230;10.444;2023-04-01T00:42:49;9.50;99.90
12025;DHT22;6073;53.230;10.444;2023-04-01T00:45:36;9.50;99.90
12025;DHT22;6073;53.230;10.444;2023-04-01T00:50:43;9.40;99.90
12025;DHT22;6073;53.230;10.444;2023-04-01T00:53:10;9.40;99.90
12025;DHT22;6073;53.230;10.444;2023-04-01T00:55:39;9.40;99.90
12025;DHT22;6073;53.230;10.444;2023-04-01T00:58:09;9.40;99.90
12025;DHT22;6073;53.230;10.444;2023-04-01T01:00:38;9.40;99.90
12025;DHT22;6073;53.230;10.444;2023-04-01T01:03:03;9.30;99.90
12025;DHT22;6073;53.230;10.444;2023-04-01T01:08:34;9.30;99.90
12025;DHT22;6073;53.230;10.444;2023-04-01T01:11:08;9.30;99.90
12025;DHT22;6073;53.230;10.444;2023-04-01T01:13:56;9.30;99.90
12025;DHT22;6073;53.230;10.444;2023-04-01T01:16:27;9.20;99.90
12025;DHT22;6073;53.230;10.444;2023-04-01T01:19:08;9.20;99.90
12025;DHT22;6073;53.230;10.444;2023-04-01T01:35:38;9.20;99.90
12025;DHT22;6073;53.230;10.444;2023-04-01T01:38:15;9.20;99.90
12025;DHT22;6073;53.230;10.444;2023-04-01T01:40:44;9.20;99.90
12025;DHT22;6073;53.230;10.444;2023-04-01T01:43:14;9.20;99.90
12025;DHT22;6073;53.230;10.444;2023-04-01T01:45:46;9.20;99.90
12025;DHT22;6073;53.230;10.444;2023-04-01T01:48:13;9.30;99.90
12025;DHT22;6073;53.230;10.444;2023-04-01T01:50:41;9.30;99.90
12025;DHT22;6073;53.230;10.444;2023-04-01T01:53:10;9.30;99.90
12025;DHT22;6073;53.230;10.444;2023-04-01T01:55:44;9.30;99.90
12025;DHT22;6073;53.230;10.444;2023-04-01T02:00:49;9.30;99.90
12025;DHT22;6073;53.230;10.444;2023-04-01T02:03:17;9.30;99.90
12025;DHT22;6073;53.230;10.444;2023-04-01T02:05:44;9.30;99.90
12025;DHT22;6073;53.230;10.444;2023-04-01T02:08:20;9.30;99.90
12025;DHT22;6073;53.230;10.444;2023-04-01T02:11:09;9.30;99.90
12025;DHT22;6073;53.230;10.444;2023-04-01T02:13:44;9.30;99.90
12025;DHT22;6073;53.230;10.444;2023-04-01T02:16:21;9.40;99.90
12025;DHT22;6073;53.230;10.444;2023-04-01T02:18:51;9.30;99.90
12025;DHT22;6073;53.230;10.444;2023-04-01T02:21:20;9.30;99.90
12025;DHT22;6073;53.230;10.444;2023-04-01T02:23:47;9.30;99.90
12025;DHT22;6073;53.230;10.444;2023-04-01T02:26:14;9.30;99.90
12025;DHT22;6073;53.230;10.444;2023-04-01T02:28:41;9.30;99.90
12025;DHT22;6073;53.230;10.444;2023-04-01T02:31:09;9.30;99.90
12025;DHT22;6073;53.230;10.444;2023-04-01T02:33:37;9.20;99.90
12025;DHT22;6073;53.230;10.444;2023-04-01T02:36:04;9.30;99.90
12025;DHT22;6073;53.230;10.444;2023-04-01T02:38:30;9.30;99.90
12025;DHT22;6073;53.230;10.444;2023-04-01T02:41:00;9.20;99.90
12025;DHT22;6073;53.230;10.444;2023-04-01T02:43:27;9.20;99.90
12025;DHT22;6073;53.230;10.444;2023-04-01T02:45:52;9.20;99.90
12025;DHT22;6073;53.230;10.444;2023-04-01T02:48:18;9.20;99.90
12025;DHT22;6073;53.230;10.444;2023-04-01T02:50:44;9.20;99.90
12025;DHT22;6073;53.230;10.444;2023-04-01T02:53:09;9.20;99.90
12025;DHT22;6073;53.230;10.444;2023-04-01T02:55:35;9.20;99.90
12025;DHT22;6073;53.230;10.444;2023-04-01T02:58:00;9.20;99.90
12025;DHT22;6073;53.230;10.444;2023-04-01T03:00:26;9.20;99.90
12025;DHT22;6073;53.230;10.444;2023-04-01T03:02:52;9.30;99.90
12025;DHT22;6073;53.230;10.444;2023-04-01T03:05:18;9.20;99.90
12025;DHT22;6073;53.230;10.444;2023-04-01T03:07:45;9.20;99.90
12025;DHT22;6073;53.230;10.444;2023-04-01T03:10:10;9.30;99.90
12025;DHT22;6073;53.230;10.444;2023-04-01T03:12:36;9.30;99.90
12025;DHT22;6073;53.230;10.444;2023-04-01T03:15:02;9.30;99.90
12025;DHT22;6073;53.230;10.444;2023-04-01T03:17:28;9.30;99.90
12025;DHT22;6073;53.230;10.444;2023-04-01T03:19:53;9.40;99.90
12025;DHT22;6073;53.230;10.444;2023-04-01T03:22:19;9.40;99.90
12025;DHT22;6073;53.230;10.444;2023-04-01T03:24:47;9.40;99.90
12025;DHT22;6073;53.230;10.444;2023-04-01T03:27:12;9.40;99.90
12025;DHT22;6073;53.230;10.444;2023-04-01T03:29:38;9.30;99.90
12025;DHT22;6073;53.230;10.444;2023-04-01T03:32:04;9.40;99.90
12025;DHT22;6073;53.230;10.444;2023-04-01T03:34:30;9.30;99.90
12025;DHT22;6073;53.230;10.444;2023-04-01T03:36:55;9.40;99.90
12025;DHT22;6073;53.230;10.444;2023-04-01T03:39:21;9.40;99.90
12025;DHT22;6073;53.230;10.444;2023-04-01T03:41:47;9.40;99.90
12025;DHT22;6073;53.230;10.444;2023-04-01T03:44:13;9.40;99.90
12025;DHT22;6073;53.230;10.444;2023-04-01T03:46:38;9.40;99.90
12025;DHT22;6073;53.230;10.444;2023-04-01T03:49:11;9.40;99.90
12025;DHT22;6073;53.230;10.444;2023-04-01T03:51:41;9.40;99.90
12025;DHT22;6073;53.230;10.444;2023-04-01T03:54:08;9.40;99.90
12025;DHT22;6073;53.230;10.444;2023-04-01T03:56:33;9.40;99.90
12025;DHT22;6073;53.230;10.444;2023-04-01T03:59:03;9.30;99.90
12025;DHT22;6073;53.230;10.444;2023-04-01T04:01:29;9.40;99.90
12025;DHT22;6073;53.230;10.444;2023-04-01T04:03:55;9.40;99.90
12025;DHT22;6073;53.230;10.444;2023-04-01T04:06:22;9.40;99.90
12025;DHT22;6073;53.230;10.444;2023-04-01T04:08:48;9.40;99.90
12025;DHT22;6073;53.230;10.444;2023-04-01T04:11:14;9.40;99.90
12025;DHT22;6073;53.230;10.444;2023-04-01T04:13:40;9.40;99.90
12025;DHT22;6073;53.230;10.444;2023-04-01T04:16:06;9.40;99.90
12025;DHT22;6073;53.230;10.444;2023-04-01T04:18:32;9.40;99.90
12025;DHT22;6073;53.230;10.444;2023-04-01T04:20:57;9.40;99.90
12025;DHT22;6073;53.230;10.444;2023-04-01T04:23:23;9.40;99.90
12025;DHT22;6073;53.230;10.444;2023-04-01T04:26:00;9.40;99.90
12025;DHT22;6073;53.230;10.444;2023-04-01T04:28:27;9.40;99.90
12025;DHT22;6073;53.230;10.444;2023-04-01T04:30:53;9.40;99.90
12025;DHT22;6073;53.230;10.444;2023-04-01T04:33:19;9.40;99.90
12025;DHT22;6073;53.230;10.444;2023-04-01T04:35:44;9.30;99.90
12025;DHT22;6073;53.230;10.444;2023-04-01T04:38:10;9.30;99.90
12025;DHT22;6073;53.230;10.444;2023-04-01T04:40:37;9.30;99.90
12025;DHT22;6073;53.230;10.444;2023-04-01T04:43:03;9.30;99.90
12025;DHT22;6073;53.230;10.444;2023-04-01T04:45:29;9.30;99.90
12025;DHT22;6073;53.230;10.444;2023-04-01T04:47:54;9.30;99.90
12025;DHT22;6073;53.230;10.444;2023-04-01T04:50:20;9.30;99.90
12025;DHT22;6073;53.230;10.444;2023-04-01T04:52:45;9.30;99.90
12025;DHT22;6073;53.230;10.444;2023-04-01T04:55:11;9.30;99.90
12025;DHT22;6073;53.230;10.444;2023-04-01T04:57:36;9.30;99.90
12025;DHT22;6073;53.230;10.444;2023-04-01T05:00:02;9.30;99.90
12025;DHT22;6073;53.230;10.444;2023-04-01T05:02:28;9.20;99.90
12025;DHT22;6073;53.230;10.444;2023-04-01T05:04:54;9.30;99.90
12025;DHT22;6073;53.230;10.444;2023-04-01T05:07:19;9.30;99.90
12025;DHT22;6073;53.230;10.444;2023-04-01T05:09:45;9.30;99.90
12025;DHT22;6073;53.230;10.444;2023-04-01T05:12:12;9.30;99.90
12025;DHT22;6073;53.230;10.444;2023-04-01T05:14:38;9.30;99.90
12025;DHT22;6073;53.230;10.444;2023-04-01T05:17:07;9.30;99.90
12025;DHT22;6073;53.230;10.444;2023-04-01T05:19:33;9.30;99.90
12025;DHT22;6073;53.230;10.444;2023-04-01T05:21:59;9.40;99.90
12025;DHT22;6073;53.230;10.444;2023-04-01T05:24:24;9.30;99.90
12025;DHT22;6073;53.230;10.444;2023-04-01T05:26:50;9.30;99.90
12025;DHT22;6073;53.230;10.444;2023-04-01T05:29:15;9.30;99.90
12025;DHT22;6073;53.230;10.444;2023-04-01T05:31:41;9.30;99.90
12025;DHT22;6073;53.230;10.444;2023-04-01T05:34:06;9.40;99.90
12025;DHT22;6073;53.230;10.444;2023-04-01T05:36:32;9.40;99.90
12025;DHT22;6073;53.230;10.444;2023-04-01T05:38:57;9.40;99.90
12025;DHT22;6073;53.230;10.444;2023-04-01T05:41:23;9.50;99.90
12025;DHT22;6073;53.230;10.444;2023-04-01T05:43:49;9.50;99.90
12025;DHT22;6073;53.230;10.444;2023-04-01T05:46:15;9.50;99.90
12025;DHT22;6073;53.230;10.444;2023-04-01T05:48:40;9.50;99.90
12025;DHT22;6073;53.230;10.444;2023-04-01T05:51:06;9.50;99.90
12025;DHT22;6073;53.230;10.444;2023-04-01T05:53:31;9.60;99.90
12025;DHT22;6073;53.230;10.444;2023-04-01T05:56:01;9.60;99.90
12025;DHT22;6073;53.230;10.444;2023-04-01T05:58:26;9.60;99.90
12025;DHT22;6073;53.230;10.444;2023-04-01T06:01:00;9.70;99.90
12025;DHT22;6073;53.230;10.444;2023-04-01T06:03:26;9.70;99.90
12025;DHT22;6073;53.230;10.444;2023-04-01T06:05:51;9.70;99.90
12025;DHT22;6073;53.230;10.444;2023-04-01T06:08:17;9.80;99.90
12025;DHT22;6073;53.230;10.444;2023-04-01T06:16:39;9.90;99.90
12025;DHT22;6073;53.230;10.444;2023-04-01T06:19:27;9.90;99.90
12025;DHT22;6073;53.230;10.444;2023-04-01T06:25:21;10.10;99.90
12025;DHT22;6073;53.230;10.444;2023-04-01T06:30:31;10.10;99.90
12025;DHT22;6073;53.230;10.444;2023-04-01T06:36:39;10.10;99.90
12025;DHT22;6073;53.230;10.444;2023-04-01T06:48:24;10.00;99.90
12025;DHT22;6073;53.230;10.444;2023-04-01T06:50:34;9.90;99.90
12025;DHT22;6073;53.230;10.444;2023-04-01T06:53:31;9.80;99.90
12025;DHT22;6073;53.230;10.444;2023-04-01T06:56:10;9.60;99.90
12025;DHT22;6073;53.230;10.444;2023-04-01T06:58:41;9.50;99.90
12025;DHT22;6073;53.230;10.444;2023-04-01T07:01:10;9.40;99.90
12025;DHT22;6073;53.230;10.444;2023-04-01T07:03:44;9.20;99.90
12025;DHT22;6073;53.230;10.444;2023-04-01T07:06:21;9.10;99.90
12025;DHT22;6073;53.230;10.444;2023-04-01T07:08:49;8.90;99.90
12025;DHT22;6073;53.230;10.444;2023-04-01T07:11:28;8.90;99.90
12025;DHT22;6073;53.230;10.444;2023-04-01T07:14:17;8.80;99.90
12025;DHT22;6073;53.230;10.444;2023-04-01T07:16:47;8.80;99.90
12025;DHT22;6073;53.230;10.444;2023-04-01T07:19:36;8.80;99.90
12025;DHT22;6073;53.230;10.444;2023-04-01T07:22:43;8.70;99.90
12025;DHT22;6073;53.230;10.444;2023-04-01T07:25:15;8.70;99.90
12025;DHT22;6073;53.230;10.444;2023-04-01T07:27:43;8.50;99.90
12025;DHT22;6073;53.230;10.444;2023-04-01T07:35:35;8.40;99.90
12025;DHT22;6073;53.230;10.444;2023-04-01T07:43:37;8.10;99.90
12025;DHT22;6073;53.230;10.444;2023-04-01T07:49:25;8.10;99.90
12025;DHT22;6073;53.230;10.444;2023-04-01T07:52:06;8.10;99.90
12025;DHT22;6073;53.230;10.444;2023-04-01T07:54:48;8.00;99.90
12025;DHT22;6073;53.230;10.444;2023-04-01T08:00:17;8.00;99.90
12025;DHT22;6073;53.230;10.444;2023-04-01T08:03:00;8.00;99.90
12025;DHT22;6073;53.230;10.444;2023-04-01T08:05:40;8.00;99.90
12025;DHT22;6073;53.230;10.444;2023-04-01T08:11:02;8.00;99.90
12025;DHT22;6073;53.230;10.444;2023-04-01T08:13:51;8.00;99.90
12025;DHT22;6073;53.230;10.444;2023-04-01T08:16:38;8.00;99.90
12025;DHT22;6073;53.230;10.444;2023-04-01T08:19:17;8.00;99.90
12025;DHT22;6073;53.230;10.444;2023-04-01T08:21:55;8.00;99.90
12025;DHT22;6073;53.230;10.444;2023-04-01T08:24:43;8.00;99.90
12025;DHT22;6073;53.230;10.444;2023-04-01T08:27:31;8.00;99.90
12025;DHT22;6073;53.230;10.444;2023-04-01T08:32:35;8.00;99.90
12025;DHT22;6073;53.230;10.444;2023-04-01T08:35:34;7.90;99.90
12025;DHT22;6073;53.230;10.444;2023-04-01T08:38:30;7.90;99.90
12025;DHT22;6073;53.230;10.444;2023-04-01T08:48:49;7.70;99.90
12025;DHT22;6073;53.230;10.444;2023-04-01T08:54:21;7.70;99.90
12025;DHT22;6073;53.230;10.444;2023-04-01T08:57:31;7.70;99.90
12025;DHT22;6073;53.230;10.444;2023-04-01T09:00:20;7.80;99.90
12025;DHT22;6073;53.230;10.444;2023-04-01T09:19:56;7.60;99.90
12025;DHT22;6073;53.230;10.444;2023-04-01T09:25:24;7.60;99.90
12025;DHT22;6073;53.230;10.444;2023-04-01T09:27:57;7.70;99.90
12025;DHT22;6073;53.230;10.444;2023-04-01T09:30:41;7.70;99.90
12025;DHT22;6073;53.230;10.444;2023-04-01T09:36:12;7.80;99.90
12025;DHT22;6073;53.230;10.444;2023-04-01T09:39:53;7.90;99.90
12025;DHT22;6073;53.230;10.444;2023-04-01T09:44:44;7.80;99.90
12025;DHT22;6073;53.230;10.444;2023-04-01T09:53:04;8.00;99.90
12025;DHT22;6073;53.230;10.444;2023-04-01T09:55:56;8.00;99.90
12025;DHT22;6073;53.230;10.444;2023-04-01T10:04:23;7.90;99.90
12025;DHT22;6073;53.230;10.444;2023-04-01T10:12:55;7.90;99.90
12025;DHT22;6073;53.230;10.444;2023-04-01T10:18:48;7.80;99.90
12025;DHT22;6073;53.230;10.444;2023-04-01T10:21:57;7.80;99.90
12025;DHT22;6073;53.230;10.444;2023-04-01T10:30:18;7.70;99.90
12025;DHT22;6073;53.230;10.444;2023-04-01T10:33:39;7.70;99.90
12025;DHT22;6073;53.230;10.444;2023-04-01T10:36:13;7.60;99.90
12025;DHT22;6073;53.230;10.444;2023-04-01T10:42:24;7.60;99.90
12025;DHT22;6073;53.230;10.444;2023-04-01T10:51:12;7.80;99.90
12025;DHT22;6073;53.230;10.444;2023-04-01T10:56:50;7.60;99.90
12025;DHT22;6073;53.230;10.444;2023-04-01T11:06:05;7.70;99.90
12025;DHT22;6073;53.230;10.444;2023-04-01T11:08:52;7.70;99.90
12025;DHT22;6073;53.230;10.444;2023-04-01T11:17:26;7.80;99.90
12025;DHT22;6073;53.230;10.444;2023-04-01T11:23:28;7.80;99.90
12025;DHT22;6073;53.230;10.444;2023-04-01T11:31:31;8.20;99.90
12025;DHT22;6073;53.230;10.444;2023-04-01T11:34:15;8.20;99.90
12025;DHT22;6073;53.230;10.444;2023-04-01T11:37:06;8.20;99.90
12025;DHT22;6073;53.230;10.444;2023-04-01T11:40:04;8.20;99.90
12025;DHT22;6073;53.230;10.444;2023-04-01T11:42:46;8.00;99.90
12025;DHT22;6073;53.230;10.444;2023-04-01T11:48:24;7.70;99.90
12025;DHT22;6073;53.230;10.444;2023-04-01T11:51:33;7.60;99.90
12025;DHT22;6073;53.230;10.444;2023-04-01T11:54:23;7.60;99.90
12025;DHT22;6073;53.230;10.444;2023-04-01T11:57:13;7.60;99.90
12025;DHT22;6073;53.230;10.444;2023-04-01T11:59:56;7.60;99.90
12025;DHT22;6073;53.230;10.444;2023-04-01T12:05:22;7.60;99.90
12025;DHT22;6073;53.230;10.444;2023-04-01T12:07:56;7.60;99.90
12025;DHT22;6073;53.230;10.444;2023-04-01T12:10:46;7.50;99.90
12025;DHT22;6073;53.230;10.444;2023-04-01T12:18:51;7.30;99.90
12025;DHT22;6073;53.230;10.444;2023-04-01T12:24:24;7.30;99.90
12025;DHT22;6073;53.230;10.444;2023-04-01T12:27:06;7.30;99.90
12025;DHT22;6073;53.230;10.444;2023-04-01T12:38:26;7.40;99.90
12025;DHT22;6073;53.230;10.444;2023-04-01T12:52:10;7.40;99.90
12025;DHT22;6073;53.230;10.444;2023-04-01T13:08:28;7.20;99.90
12025;DHT22;6073;53.230;10.444;2023-04-01T13:20:11;7.00;99.90
12025;DHT22;6073;53.230;10.444;2023-04-01T13:28:44;7.10;99.90
12025;DHT22;6073;53.230;10.444;2023-04-01T13:31:36;7.10;99.90
12025;DHT22;6073;53.230;10.444;2023-04-01T13:34:26;7.00;99.90
12025;DHT22;6073;53.230;10.444;2023-04-01T13:37:08;7.00;99.90
12025;DHT22;6073;53.230;10.444;2023-04-01T13:46:01;6.70;99.90
12025;DHT22;6073;53.230;10.444;2023-04-01T13:56:42;6.70;99.90
12025;DHT22;6073;53.230;10.444;2023-04-01T14:02:51;6.60;99.90
12025;DHT22;6073;53.230;10.444;2023-04-01T14:08:53;6.60;99.90
12025;DHT22;6073;53.230;10.444;2023-04-01T14:11:36;6.60;99.90
12025;DHT22;6073;53.230;10.444;2023-04-01T14:14:08;6.60;99.90
12025;DHT22;6073;53.230;10.444;2023-04-01T14:25:30;6.50;99.90
12025;DHT22;6073;53.230;10.444;2023-04-01T14:28:18;6.50;99.90
12025;DHT22;6073;53.230;10.444;2023-04-01T14:39:18;6.40;99.90
12025;DHT22;6073;53.230;10.444;2023-04-01T14:42:23;6.30;99.90
12025;DHT22;6073;53.230;10.444;2023-04-01T14:50:19;6.30;99.90
12025;DHT22;6073;53.230;10.444;2023-04-01T14:52:57;6.30;99.90
12025;DHT22;6073;53.230;10.444;2023-04-01T15:00:54;6.20;99.90
12025;DHT22;6073;53.230;10.444;2023-04-01T15:03:27;6.20;99.90
12025;DHT22;6073;53.230;10.444;2023-04-01T15:08:51;6.10;99.90
12025;DHT22;6073;53.230;10.444;2023-04-01T15:14:45;6.00;99.90
12025;DHT22;6073;53.230;10.444;2023-04-01T15:28:44;5.90;99.90
12025;DHT22;6073;53.230;10.444;2023-04-01T15:31:34;5.90;99.90
12025;DHT22;6073;53.230;10.444;2023-04-01T15:37:32;5.80;99.90
12025;DHT22;6073;53.230;10.444;2023-04-01T15:40:19;5.80;99.90
12025;DHT22;6073;53.230;10.444;2023-04-01T15:42:55;5.90;99.90
12025;DHT22;6073;53.230;10.444;2023-04-01T15:45:46;5.80;99.90
12025;DHT22;6073;53.230;10.444;2023-04-01T15:54:32;5.70;99.90
12025;DHT22;6073;53.230;10.444;2023-04-01T16:00:02;5.70;99.90
12025;DHT22;6073;53.230;10.444;2023-04-01T16:06:08;5.70;99.90
12025;DHT22;6073;53.230;10.444;2023-04-01T16:08:41;5.60;99.90
12025;DHT22;6073;53.230;10.444;2023-04-01T16:17:05;5.70;99.90
12025;DHT22;6073;53.230;10.444;2023-04-01T16:22:35;5.70;99.90
12025;DHT22;6073;53.230;10.444;2023-04-01T16:25:41;5.70;99.90
12025;DHT22;6073;53.230;10.444;2023-04-01T16:28:29;5.60;99.90
12025;DHT22;6073;53.230;10.444;2023-04-01T16:31:16;5.60;99.90
12025;DHT22;6073;53.230;10.444;2023-04-01T16:34:03;5.50;99.90
12025;DHT22;6073;53.230;10.444;2023-04-01T16:39:41;5.50;99.90
12025;DHT22;6073;53.230;10.444;2023-04-01T16:42:39;5.50;99.90
12025;DHT22;6073;53.230;10.444;2023-04-01T16:47:54;5.40;99.90
12025;DHT22;6073;53.230;10.444;2023-04-01T16:50:26;5.40;99.90
12025;DHT22;6073;53.230;10.444;2023-04-01T16:58:25;5.20;99.90
12025;DHT22;6073;53.230;10.444;2023-04-01T17:00:58;5.10;99.90
12025;DHT22;6073;53.230;10.444;2023-04-01T17:03:50;5.10;99.90
12025;DHT22;6073;53.230;10.444;2023-04-01T17:08:58;5.00;99.90
12025;DHT22;6073;53.230;10.444;2023-04-01T17:11:39;5.00;99.90
12025;DHT22;6073;53.230;10.444;2023-04-01T17:14:25;4.90;99.90
12025;DHT22;6073;53.230;10.444;2023-04-01T17:16:56;4.90;99.90
12025;DHT22;6073;53.230;10.444;2023-04-01T17:22:37;4.80;99.90
12025;DHT22;6073;53.230;10.444;2023-04-01T17:28:03;4.80;99.90
12025;DHT22;6073;53.230;10.444;2023-04-01T17:30:33;4.70;99.90
12025;DHT22;6073;53.230;10.444;2023-04-01T17:33:22;4.70;99.90
12025;DHT22;6073;53.230;10.444;2023-04-01T17:39:30;4.70;99.90
12025;DHT22;6073;53.230;10.444;2023-04-01T17:42:39;4.60;99.90
12025;DHT22;6073;53.230;10.444;2023-04-01T17:45:28;4.60;99.90
12025;DHT22;6073;53.230;10.444;2023-04-01T17:53:56;4.50;99.90
12025;DHT22;6073;53.230;10.444;2023-04-01T18:02:02;4.40;99.90
12025;DHT22;6073;53.230;10.444;2023-04-01T18:04:37;4.40;99.90
12025;DHT22;6073;53.230;10.444;2023-04-01T18:07:27;4.40;99.90
12025;DHT22;6073;53.230;10.444;2023-04-01T18:15:35;4.40;99.90
12025;DHT22;6073;53.230;10.444;2023-04-01T18:18:26;4.30;99.90
12025;DHT22;6073;53.230;10.444;2023-04-01T18:26:23;4.30;99.90
12025;DHT22;6073;53.230;10.444;2023-04-01T18:29:11;4.20;99.90
12025;DHT22;6073;53.230;10.444;2023-04-01T18:31:44;4.20;99.90
12025;DHT22;6073;53.230;10.444;2023-04-01T18:37:30;4.20;99.90
12025;DHT22;6073;53.230;10.444;2023-04-01T18:43:11;4.20;99.90
12025;DHT22;6073;53.230;10.444;2023-04-01T18:45:50;4.10;99.90
12025;DHT22;6073;53.230;10.444;2023-04-01T18:51:13;4.20;99.90
12025;DHT22;6073;53.230;10.444;2023-04-01T18:54:00;4.10;99.90
12025;DHT22;6073;53.230;10.444;2023-04-01T18:56:32;4.10;99.90
12025;DHT22;6073;53.230;10.444;2023-04-01T19:01:58;4.10;99.90
12025;DHT22;6073;53.230;10.444;2023-04-01T19:04:39;4.10;99.90
12025;DHT22;6073;53.230;10.444;2023-04-01T19:15:44;4.00;99.90
12025;DHT22;6073;53.230;10.444;2023-04-01T19:18:27;4.00;99.90
12025;DHT22;6073;53.230;10.444;2023-04-01T19:21:09;3.90;99.90
12025;DHT22;6073;53.230;10.444;2023-04-01T19:26:46;3.90;99.90
12025;DHT22;6073;53.230;10.444;2023-04-01T19:29:44;3.90;99.90
12025;DHT22;6073;53.230;10.444;2023-04-01T19:32:33;3.80;99.90
12025;DHT22;6073;53.230;10.444;2023-04-01T19:37:46;3.90;99.90
12025;DHT22;6073;53.230;10.444;2023-04-01T19:43:04;3.90;99.90
12025;DHT22;6073;53.230;10.444;2023-04-01T19:51:09;3.80;99.90
12025;DHT22;6073;53.230;10.444;2023-04-01T19:53:54;3.70;99.90
12025;DHT22;6073;53.230;10.444;2023-04-01T19:56:39;3.80;99.90
12025;DHT22;6073;53.230;10.444;2023-04-01T19:59:30;3.80;99.90
12025;DHT22;6073;53.230;10.444;2023-04-01T20:02:14;3.70;99.90
12025;DHT22;6073;53.230;10.444;2023-04-01T20:04:51;3.80;99.90
12025;DHT22;6073;53.230;10.444;2023-04-01T20:07:37;3.80;99.90
12025;DHT22;6073;53.230;10.444;2023-04-01T20:10:09;3.80;99.90
12025;DHT22;6073;53.230;10.444;2023-04-01T20:12:51;3.80;99.90
12025;DHT22;6073;53.230;10.444;2023-04-01T20:15:31;3.80;99.90
12025;DHT22;6073;53.230;10.444;2023-04-01T20:18:00;3.80;99.90
12025;DHT22;6073;53.230;10.444;2023-04-01T20:20:29;3.80;99.90
12025;DHT22;6073;53.230;10.444;2023-04-01T20:23:26;3.70;99.90
12025;DHT22;6073;53.230;10.444;2023-04-01T20:26:13;3.70;99.90
12025;DHT22;6073;53.230;10.444;2023-04-01T20:29:11;3.60;99.90
12025;DHT22;6073;53.230;10.444;2023-04-01T20:31:41;3.60;99.90
12025;DHT22;6073;53.230;10.444;2023-04-01T20:40:05;3.50;99.90
12025;DHT22;6073;53.230;10.444;2023-04-01T20:50:51;3.40;99.90
12025;DHT22;6073;53.230;10.444;2023-04-01T20:53:42;3.40;99.90
12025;DHT22;6073;53.230;10.444;2023-04-01T20:59:25;3.10;99.90
12025;DHT22;6073;53.230;10.444;2023-04-01T21:05:22;2.90;99.90
12025;DHT22;6073;53.230;10.444;2023-04-01T21:08:07;2.90;99.90
12025;DHT22;6073;53.230;10.444;2023-04-01T21:10:43;2.80;99.90
12025;DHT22;6073;53.230;10.444;2023-04-01T21:30:04;2.50;99.90
12025;DHT22;6073;53.230;10.444;2023-04-01T21:32:53;2.40;99.90
12025;DHT22;6073;53.230;10.444;2023-04-01T21:52:45;2.10;99.90
12025;DHT22;6073;53.230;10.444;2023-04-01T21:58:30;2.10;99.90
12025;DHT22;6073;53.230;10.444;2023-04-01T22:01:22;2.10;99.90
12025;DHT22;6073;53.230;10.444;2023-04-01T22:09:11;2.00;99.90
12025;DHT22;6073;53.230;10.444;2023-04-01T22:17:28;1.90;99.90
12025;DHT22;6073;53.230;10.444;2023-04-01T22:20:13;1.90;99.90
12025;DHT22;6073;53.230;10.444;2023-04-01T22:25:25;1.80;99.90
12025;DHT22;6073;53.230;10.444;2023-04-01T22:28:07;1.90;99.90
12025;DHT22;6073;53.230;10.444;2023-04-01T22:30:39;1.90;99.90
12025;DHT22;6073;53.230;10.444;2023-04-01T22:39:18;1.70;99.90
12025;DHT22;6073;53.230;10.444;2023-04-01T22:42:12;1.80;99.90
12025;DHT22;6073;53.230;10.444;2023-04-01T22:44:59;1.70;99.90
12025;DHT22;6073;53.230;10.444;2023-04-01T22:47:46;1.60;99.90
12025;DHT22;6073;53.230;10.444;2023-04-01T22:50:32;1.70;99.90
12025;DHT22;6073;53.230;10.444;2023-04-01T22:55:53;1.60;99.90
12025;DHT22;6073;53.230;10.444;2023-04-01T22:58:24;1.60;99.90
12025;DHT22;6073;53.230;10.444;2023-04-01T23:00:55;1.50;99.90
12025;DHT22;6073;53.230;10.444;2023-04-01T23:03:35;1.40;99.90
12025;DHT22;6073;53.230;10.444;2023-04-01T23:06:03;1.50;99.90
12025;DHT22;6073;53.230;10.444;2023-04-01T23:08:52;1.50;99.90
12025;DHT22;6073;53.230;10.444;2023-04-01T23:11:37;1.60;99.90
12025;DHT22;6073;53.230;10.444;2023-04-01T23:20:00;1.50;99.90
12025;DHT22;6073;53.230;10.444;2023-04-01T23:25:43;1.40;99.90
12025;DHT22;6073;53.230;10.444;2023-04-01T23:28:25;1.50;99.90
12025;DHT22;6073;53.230;10.444;2023-04-01T23:30:57;1.40;99.90
12025;DHT22;6073;53.230;10.444;2023-04-01T23:33:28;1.40;99.90
12025;DHT22;6073;53.230;10.444;2023-04-01T23:36:02;1.40;99.90
12025;DHT22;6073;53.230;10.444;2023-04-01T23:38:40;1.30;99.90
12025;DHT22;6073;53.230;10.444;2023-04-01T23:41:32;1.40;99.90
12025;DHT22;6073;53.230;10.444;2023-04-01T23:44:11;1.30;99.90
12025;DHT22;6073;53.230;10.444;2023-04-01T23:46:40;1.20;99.90
12025;DHT22;6073;53.230;10.444;2023-04-01T23:49:32;1.20;99.90
12025;DHT22;6073;53.230;10.444;2023-04-01T23:52:03;1.20;99.90
12025;DHT22;6073;53.230;10.444;2023-04-01T23:54:51;1.30;99.90
12025;DHT22;6073;53.230;10.444;2023-04-01T23:57:24;1.30;99.90
